Sea Cloud — 9HOM2 — position and weather

sailwx.info

Track history (hours):
 
Tides and Currents Weather Stations Pressure Air Temp Water Temp Dewpoint Dewpoint Depression Visibility Wind Speed Wind Dir Waves Ship Positions

Sea Cloud

Ship's website: http://www.seacloud.com/en/the-ships/sea-cloud.html

Last reported at 2019-Nov-17 17:30 UTC. Time now 2019-Nov-17 17:41 UTC.
Position N 28°09' W 015°25'.

Length 110 m; draft 5.2 m.

Type: Ship. MMSI: 256084000.

Date/timePositionNaut miles runAvg speedWind from/ knotsBaromVisibWave heightAir tempDewpointWater temp
2019-Nov-17 17:30N 28°09' W 015°25'0 0.0
2019-Nov-17 16:55N 28°09' W 015°25'0 0.0
2019-Nov-17 07:27N 28°09' W 015°25'0 0.0
2019-Nov-17 04:26N 28°09' W 015°25'0 0.0
2019-Nov-17 03:55N 28°09' W 015°25'0 0.0
2019-Nov-17 03:26N 28°09' W 015°25'0 0.0
2019-Nov-17 01:25N 28°09' W 015°25'0 0.0
2019-Nov-16 21:25N 28°09' W 015°25'0 0.0
2019-Nov-16 20:29N 28°09' W 015°25'0 0.0
2019-Nov-16 19:20N 28°09' W 015°25'0 0.0
2019-Nov-16 18:58N 28°09' W 015°25'0 0.0
2019-Nov-16 18:19N 28°09' W 015°25'0 0.0
2019-Nov-16 17:26N 28°09' W 015°25'0 0.0
2019-Nov-16 16:58N 28°09' W 015°25'0 0.0
2019-Nov-16 15:52N 28°09' W 015°25'0 0.0
2019-Nov-16 15:22N 28°09' W 015°25'0 0.0
2019-Nov-15 11:35N 28°09' W 015°25'0 0.0
2019-Nov-15 04:09N 28°09' W 015°25'0 0.0
2019-Nov-15 03:21N 28°09' W 015°25'0 0.0
2019-Nov-14 23:57N 28°09' W 015°25'0 0.0
2019-Nov-14 22:30N 28°09' W 015°25'0 0.0
2019-Nov-14 19:30N 28°09' W 015°25'0 0.0
2019-Nov-14 19:00N 28°09' W 015°25'0 0.0
2019-Nov-14 18:30N 28°09' W 015°25'0 0.0
2019-Nov-14 18:00N 28°09' W 015°25'0 0.0
2019-Nov-14 17:21N 28°09' W 015°25'0 0.0
2019-Nov-14 10:30N 28°09' W 015°25'0 0.0
2019-Nov-14 06:30N 28°09' W 015°25'0 0.0
2019-Nov-14 03:54N 28°09' W 015°25'0 0.0
2019-Nov-14 01:57N 28°09' W 015°25'0 0.0
2019-Nov-13 20:03N 28°09' W 015°25'0 0.0
2019-Nov-13 18:28N 28°09' W 015°25'0 0.0
2019-Nov-13 17:57N 28°09' W 015°25'0 0.0
2019-Nov-13 15:58N 28°09' W 015°25'0 0.0
2019-Nov-13 14:17N 28°09' W 015°25'0 0.0
2019-Nov-13 13:59N 28°09' W 015°25'0 0.0
2019-Nov-13 12:23N 28°09' W 015°25'0 0.0
2019-Nov-13 11:29N 28°09' W 015°25'0 0.0
2019-Nov-13 09:59N 28°09' W 015°25'0 0.0
2019-Nov-13 09:29N 28°09' W 015°25'0 0.0
2019-Nov-13 08:29N 28°09' W 015°25'0 0.0
2019-Nov-13 05:59N 28°09' W 015°25'0 0.0
2019-Nov-13 02:47N 28°09' W 015°25'0 0.0
2019-Nov-13 02:29N 28°09' W 015°25'0 0.0
2019-Nov-13 01:59N 28°09' W 015°25'0 0.0
2019-Nov-12 23:53N 28°09' W 015°25'0 0.0
2019-Nov-12 23:23N 28°09' W 015°25'0 0.0
2019-Nov-12 21:53N 28°09' W 015°25'0 0.0
2019-Nov-12 17:59N 28°09' W 015°25'0 0.0
2019-Nov-12 15:29N 28°09' W 015°25'0 0.0
2019-Nov-12 14:59N 28°09' W 015°25'0 0.0
2019-Nov-12 13:59N 28°09' W 015°25'0 0.0
2019-Nov-12 13:29N 28°09' W 015°25'0 0.0
2019-Nov-12 12:59N 28°09' W 015°25'0 0.0
2019-Nov-12 11:53N 28°09' W 015°25'0 0.0
2019-Nov-12 11:23N 28°09' W 015°25'0 0.0
2019-Nov-12 09:59N 28°09' W 015°25'0 0.0
2019-Nov-12 08:53N 28°09' W 015°25'0 0.0
2019-Nov-12 07:29N 28°09' W 015°25'0 0.0
2019-Nov-12 05:59N 28°09' W 015°25'0 0.0
2019-Nov-12 03:29N 28°09' W 015°25'0 0.0
2019-Nov-12 02:29N 28°09' W 015°25'0 0.0
2019-Nov-12 01:29N 28°09' W 015°25'0 0.0
2019-Nov-11 23:53N 28°09' W 015°25'0 0.0
2019-Nov-11 21:24N 28°09' W 015°25'0 0.0
2019-Nov-11 20:54N 28°09' W 015°25'0 0.1
2019-Nov-11 18:30N 28°09' W 015°25'0 0.0
2019-Nov-11 17:27N 28°09' W 015°25'0 0.0
2019-Nov-11 17:00N 28°09' W 015°25'0 0.0
2019-Nov-11 16:30N 28°09' W 015°25'0 0.0
2019-Nov-11 15:00N 28°09' W 015°25'1 0.5
2019-Nov-11 12:59N 28°08' W 015°25'0 0.0
2019-Nov-11 11:53N 28°08' W 015°25'0 0.0
2019-Nov-11 10:29N 28°08' W 015°25'0 0.0
2019-Nov-11 08:59N 28°08' W 015°25'4 1.4
2019-Nov-11 06:01N 28°10' W 015°21'2 4.5
2019-Nov-11 05:31N 28°12' W 015°23'13 6.5
2019-Nov-11 03:31N 28°13' W 015°37'6 6.4
2019-Nov-11 02:30N 28°15' W 015°44'4 7.6
2019-Nov-11 02:00N 28°15' W 015°49'10 6.3
2019-Nov-11 00:22N 28°17' W 016°00'6 7.1
2019-Nov-10 23:29N 28°21' W 016°06'7 7.5
2019-Nov-10 22:31N 28°26' W 016°11'3 2.3
2019-Nov-10 20:58N 28°28' W 016°15'0 0.0
2019-Nov-10 15:58N 28°28' W 016°15'10 1.4
2019-Nov-10 09:00N 28°29' W 016°03'18 6.0
2019-Nov-10 05:59N 28°22' W 015°44'17 8.5
2019-Nov-10 04:01N 28°15' W 015°27'24 8.1
2019-Nov-10 01:01N 28°07' W 015°01'11 7.5
2019-Nov-09 23:31N 28°04' W 014°49'4 7.5
2019-Nov-09 23:00N 28°03' W 014°44'85 2.3
2019-Nov-08 10:42N 28°58' W 013°32'0 0.0
2019-Nov-08 09:30N 28°58' W 013°32'0 0.0
2019-Nov-08 08:54N 28°58' W 013°32'0 0.0
2019-Nov-08 08:24N 28°58' W 013°32'4 2.6
2019-Nov-08 06:59N 28°57' W 013°28'  
Track history (hours):
 
Tides and Currents Weather Stations Pressure Air Temp Water Temp Dewpoint Dewpoint Depression Visibility Wind Speed Wind Dir Waves Ship Positions

Sea Cloud

Ship's website: http://www.seacloud.com/en/the-ships/sea-cloud.html

Last reported at 2019-Nov-17 17:30 UTC. Time now 2019-Nov-17 17:41 UTC.
Position N 28°09' W 015°25'.

Length 110 m; draft 5.2 m.

Type: Ship. MMSI: 256084000.

Date/timePositionNaut miles runAvg speedWind from/ knotsBaromVisibWave heightAir tempDewpointWater temp
2019-Nov-17 17:30N 28°09' W 015°25'0 0.0
2019-Nov-17 16:55N 28°09' W 015°25'0 0.0
2019-Nov-17 07:27N 28°09' W 015°25'0 0.0
2019-Nov-17 04:26N 28°09' W 015°25'0 0.0
2019-Nov-17 03:55N 28°09' W 015°25'0 0.0
2019-Nov-17 03:26N 28°09' W 015°25'0 0.0
2019-Nov-17 01:25N 28°09' W 015°25'0 0.0
2019-Nov-16 21:25N 28°09' W 015°25'0 0.0
2019-Nov-16 20:29N 28°09' W 015°25'0 0.0
2019-Nov-16 19:20N 28°09' W 015°25'0 0.0
2019-Nov-16 18:58N 28°09' W 015°25'0 0.0
2019-Nov-16 18:19N 28°09' W 015°25'0 0.0
2019-Nov-16 17:26N 28°09' W 015°25'0 0.0
2019-Nov-16 16:58N 28°09' W 015°25'0 0.0
2019-Nov-16 15:52N 28°09' W 015°25'0 0.0
2019-Nov-16 15:22N 28°09' W 015°25'0 0.0
2019-Nov-15 11:35N 28°09' W 015°25'0 0.0
2019-Nov-15 04:09N 28°09' W 015°25'0 0.0
2019-Nov-15 03:21N 28°09' W 015°25'0 0.0
2019-Nov-14 23:57N 28°09' W 015°25'0 0.0
2019-Nov-14 22:30N 28°09' W 015°25'0 0.0
2019-Nov-14 19:30N 28°09' W 015°25'0 0.0
2019-Nov-14 19:00N 28°09' W 015°25'0 0.0
2019-Nov-14 18:30N 28°09' W 015°25'0 0.0
2019-Nov-14 18:00N 28°09' W 015°25'0 0.0
2019-Nov-14 17:21N 28°09' W 015°25'0 0.0
2019-Nov-14 10:30N 28°09' W 015°25'0 0.0
2019-Nov-14 06:30N 28°09' W 015°25'0 0.0
2019-Nov-14 03:54N 28°09' W 015°25'0 0.0
2019-Nov-14 01:57N 28°09' W 015°25'0 0.0
2019-Nov-13 20:03N 28°09' W 015°25'0 0.0
2019-Nov-13 18:28N 28°09' W 015°25'0 0.0
2019-Nov-13 17:57N 28°09' W 015°25'0 0.0
2019-Nov-13 15:58N 28°09' W 015°25'0 0.0
2019-Nov-13 14:17N 28°09' W 015°25'0 0.0
2019-Nov-13 13:59N 28°09' W 015°25'0 0.0
2019-Nov-13 12:23N 28°09' W 015°25'0 0.0
2019-Nov-13 11:29N 28°09' W 015°25'0 0.0
2019-Nov-13 09:59N 28°09' W 015°25'0 0.0
2019-Nov-13 09:29N 28°09' W 015°25'0 0.0
2019-Nov-13 08:29N 28°09' W 015°25'0 0.0
2019-Nov-13 05:59N 28°09' W 015°25'0 0.0
2019-Nov-13 02:47N 28°09' W 015°25'0 0.0
2019-Nov-13 02:29N 28°09' W 015°25'0 0.0
2019-Nov-13 01:59N 28°09' W 015°25'0 0.0
2019-Nov-12 23:53N 28°09' W 015°25'0 0.0
2019-Nov-12 23:23N 28°09' W 015°25'0 0.0
2019-Nov-12 21:53N 28°09' W 015°25'0 0.0
2019-Nov-12 17:59N 28°09' W 015°25'0 0.0
2019-Nov-12 15:29N 28°09' W 015°25'0 0.0
2019-Nov-12 14:59N 28°09' W 015°25'0 0.0
2019-Nov-12 13:59N 28°09' W 015°25'0 0.0
2019-Nov-12 13:29N 28°09' W 015°25'0 0.0
2019-Nov-12 12:59N 28°09' W 015°25'0 0.0
2019-Nov-12 11:53N 28°09' W 015°25'0 0.0
2019-Nov-12 11:23N 28°09' W 015°25'0 0.0
2019-Nov-12 09:59N 28°09' W 015°25'0 0.0
2019-Nov-12 08:53N 28°09' W 015°25'0 0.0
2019-Nov-12 07:29N 28°09' W 015°25'0 0.0
2019-Nov-12 05:59N 28°09' W 015°25'0 0.0
2019-Nov-12 03:29N 28°09' W 015°25'0 0.0
2019-Nov-12 02:29N 28°09' W 015°25'0 0.0
2019-Nov-12 01:29N 28°09' W 015°25'0 0.0
2019-Nov-11 23:53N 28°09' W 015°25'0 0.0
2019-Nov-11 21:24N 28°09' W 015°25'0 0.0
2019-Nov-11 20:54N 28°09' W 015°25'0 0.1
2019-Nov-11 18:30N 28°09' W 015°25'0 0.0
2019-Nov-11 17:27N 28°09' W 015°25'0 0.0
2019-Nov-11 17:00N 28°09' W 015°25'0 0.0
2019-Nov-11 16:30N 28°09' W 015°25'0 0.0
2019-Nov-11 15:00N 28°09' W 015°25'1 0.5
2019-Nov-11 12:59N 28°08' W 015°25'0 0.0
2019-Nov-11 11:53N 28°08' W 015°25'0 0.0
2019-Nov-11 10:29N 28°08' W 015°25'0 0.0
2019-Nov-11 08:59N 28°08' W 015°25'4 1.4
2019-Nov-11 06:01N 28°10' W 015°21'2 4.5
2019-Nov-11 05:31N 28°12' W 015°23'13 6.5
2019-Nov-11 03:31N 28°13' W 015°37'6 6.4
2019-Nov-11 02:30N 28°15' W 015°44'4 7.6
2019-Nov-11 02:00N 28°15' W 015°49'10 6.3
2019-Nov-11 00:22N 28°17' W 016°00'6 7.1
2019-Nov-10 23:29N 28°21' W 016°06'7 7.5
2019-Nov-10 22:31N 28°26' W 016°11'3 2.3
2019-Nov-10 20:58N 28°28' W 016°15'0 0.0
2019-Nov-10 15:58N 28°28' W 016°15'10 1.4
2019-Nov-10 09:00N 28°29' W 016°03'18 6.0
2019-Nov-10 05:59N 28°22' W 015°44'17 8.5
2019-Nov-10 04:01N 28°15' W 015°27'24 8.1
2019-Nov-10 01:01N 28°07' W 015°01'11 7.5
2019-Nov-09 23:31N 28°04' W 014°49'4 7.5
2019-Nov-09 23:00N 28°03' W 014°44'85 2.3
2019-Nov-08 10:42N 28°58' W 013°32'0 0.0
2019-Nov-08 09:30N 28°58' W 013°32'0 0.0
2019-Nov-08 08:54N 28°58' W 013°32'0 0.0
2019-Nov-08 08:24N 28°58' W 013°32'4 2.6
2019-Nov-08 06:59N 28°57' W 013°28'  

Dump ship's entire track history